sensor_id;sensor_type;location;lat;lon;timestamp;pressure;altitude;pressure_sealevel;temperature;humidity
4392;BME280;2210;51.938;8.488;2023-08-30T00:03:16;99831.94;;;14.00;100.00
4392;BME280;2210;51.938;8.488;2023-08-30T00:07:16;99828.03;;;14.01;100.00
4392;BME280;2210;51.938;8.488;2023-08-30T00:11:20;99836.63;;;13.94;100.00
4392;BME280;2210;51.938;8.488;2023-08-30T00:15:20;99834.72;;;13.95;100.00
4392;BME280;2210;51.938;8.488;2023-08-30T00:19:20;99834.16;;;13.93;100.00
4392;BME280;2210;51.938;8.488;2023-08-30T00:23:24;99828.91;;;14.02;100.00
4392;BME280;2210;51.938;8.488;2023-08-30T00:27:25;99828.59;;;13.98;100.00
4392;BME280;2210;51.938;8.488;2023-08-30T00:31:25;99827.78;;;13.97;100.00
4392;BME280;2210;51.938;8.488;2023-08-30T00:35:26;99821.13;;;13.93;100.00
4392;BME280;2210;51.938;8.488;2023-08-30T00:39:26;99812.00;;;13.88;100.00
4392;BME280;2210;51.938;8.488;2023-08-30T00:43:26;99806.97;;;13.79;100.00
4392;BME280;2210;51.938;8.488;2023-08-30T00:47:29;99808.13;;;13.78;100.00
4392;BME280;2210;51.938;8.488;2023-08-30T00:51:30;99812.53;;;13.69;100.00
4392;BME280;2210;51.938;8.488;2023-08-30T00:55:34;99803.69;;;13.82;100.00
4392;BME280;2210;51.938;8.488;2023-08-30T00:59:38;99808.38;;;13.72;100.00
4392;BME280;2210;51.938;8.488;2023-08-30T01:03:42;99807.28;;;13.83;100.00
4392;BME280;2210;51.938;8.488;2023-08-30T01:07:42;99798.97;;;13.83;100.00
4392;BME280;2210;51.938;8.488;2023-08-30T01:11:47;99793.13;;;13.79;100.00
4392;BME280;2210;51.938;8.488;2023-08-30T01:15:51;99792.03;;;13.75;100.00
4392;BME280;2210;51.938;8.488;2023-08-30T01:20:05;99790.34;;;13.79;100.00
4392;BME280;2210;51.938;8.488;2023-08-30T01:33:30;99784.28;;;13.72;100.00
4392;BME280;2210;51.938;8.488;2023-08-30T01:37:32;99780.94;;;13.80;100.00
4392;BME280;2210;51.938;8.488;2023-08-30T01:41:35;99787.63;;;13.74;100.00
4392;BME280;2210;51.938;8.488;2023-08-30T01:45:38;99783.97;;;13.69;100.00
4392;BME280;2210;51.938;8.488;2023-08-30T01:49:39;99784.56;;;13.81;100.00
4392;BME280;2210;51.938;8.488;2023-08-30T01:53:43;99784.81;;;13.85;100.00
4392;BME280;2210;51.938;8.488;2023-08-30T01:57:44;99792.88;;;13.76;100.00
4392;BME280;2210;51.938;8.488;2023-08-30T02:01:44;99777.09;;;13.66;100.00
4392;BME280;2210;51.938;8.488;2023-08-30T02:06:06;99781.50;;;13.72;100.00
4392;BME280;2210;51.938;8.488;2023-08-30T02:10:10;99773.19;;;13.77;100.00
4392;BME280;2210;51.938;8.488;2023-08-30T02:14:20;99774.59;;;13.80;100.00
4392;BME280;2210;51.938;8.488;2023-08-30T02:18:26;99778.19;;;13.70;100.00
4392;BME280;2210;51.938;8.488;2023-08-30T02:22:36;99767.94;;;13.76;100.00
4392;BME280;2210;51.938;8.488;2023-08-30T02:26:36;99777.91;;;13.77;100.00
4392;BME280;2210;51.938;8.488;2023-08-30T02:30:38;99777.63;;;13.78;100.00
4392;BME280;2210;51.938;8.488;2023-08-30T02:34:38;99766.56;;;13.73;100.00
4392;BME280;2210;51.938;8.488;2023-08-30T02:38:38;99780.41;;;13.68;100.00
4392;BME280;2210;51.938;8.488;2023-08-30T02:42:38;99779.00;;;13.50;100.00
4392;BME280;2210;51.938;8.488;2023-08-30T02:46:39;99774.56;;;13.54;100.00
4392;BME280;2210;51.938;8.488;2023-08-30T02:50:40;99768.75;;;13.51;100.00
4392;BME280;2210;51.938;8.488;2023-08-30T02:54:43;99769.31;;;13.53;100.00
4392;BME280;2210;51.938;8.488;2023-08-30T02:58:43;99766.56;;;13.53;100.00
4392;BME280;2210;51.938;8.488;2023-08-30T03:02:44;99758.78;;;13.44;100.00
4392;BME280;2210;51.938;8.488;2023-08-30T03:06:44;99758.78;;;13.44;100.00
4392;BME280;2210;51.938;8.488;2023-08-30T03:10:50;99773.72;;;13.54;100.00
4392;BME280;2210;51.938;8.488;2023-08-30T03:14:50;99757.69;;;13.40;100.00
4392;BME280;2210;51.938;8.488;2023-08-30T03:18:51;99754.28;;;13.28;100.00
4392;BME280;2210;51.938;8.488;2023-08-30T03:22:56;99763.72;;;13.27;100.00
4392;BME280;2210;51.938;8.488;2023-08-30T03:27:00;99770.69;;;13.40;100.00
4392;BME280;2210;51.938;8.488;2023-08-30T03:31:00;99762.94;;;13.47;100.00
4392;BME280;2210;51.938;8.488;2023-08-30T03:35:04;99769.03;;;13.44;100.00
4392;BME280;2210;51.938;8.488;2023-08-30T03:39:04;99768.22;;;13.48;100.00
4392;BME280;2210;51.938;8.488;2023-08-30T03:43:04;99762.34;;;13.29;100.00
4392;BME280;2210;51.938;8.488;2023-08-30T03:47:05;99752.66;;;13.27;100.00
4392;BME280;2210;51.938;8.488;2023-08-30T03:51:05;99763.72;;;13.22;100.00
4392;BME280;2210;51.938;8.488;2023-08-30T03:55:05;99764.78;;;13.15;100.00
4392;BME280;2210;51.938;8.488;2023-08-30T03:59:06;99758.16;;;13.16;100.00
4392;BME280;2210;51.938;8.488;2023-08-30T04:03:08;99759.81;;;13.18;100.00
4392;BME280;2210;51.938;8.488;2023-08-30T04:07:17;99752.31;;;13.13;100.00
4392;BME280;2210;51.938;8.488;2023-08-30T04:11:17;99754.00;;;13.14;100.00
4392;BME280;2210;51.938;8.488;2023-08-30T04:15:24;99753.72;;;13.05;100.00
4392;BME280;2210;51.938;8.488;2023-08-30T04:19:24;99750.66;;;13.02;100.00
4392;BME280;2210;51.938;8.488;2023-08-30T04:23:30;99750.38;;;13.03;100.00
4392;BME280;2210;51.938;8.488;2023-08-30T04:27:30;99742.38;;;13.07;100.00
4392;BME280;2210;51.938;8.488;2023-08-30T04:31:34;99740.41;;;13.02;100.00
4392;BME280;2210;51.938;8.488;2023-08-30T04:35:34;99746.53;;;13.09;100.00
4392;BME280;2210;51.938;8.488;2023-08-30T04:39:38;99734.06;;;13.07;100.00
4392;BME280;2210;51.938;8.488;2023-08-30T04:43:38;99738.69;;;12.86;100.00
4392;BME280;2210;51.938;8.488;2023-08-30T04:47:38;99731.78;;;12.83;100.00
4392;BME280;2210;51.938;8.488;2023-08-30T04:51:39;99731.25;;;12.86;100.00
4392;BME280;2210;51.938;8.488;2023-08-30T04:55:39;99737.59;;;12.87;100.00
4392;BME280;2210;51.938;8.488;2023-08-30T04:59:43;99729.88;;;12.89;100.00
4392;BME280;2210;51.938;8.488;2023-08-30T05:03:43;99730.97;;;12.98;100.00
4392;BME280;2210;51.938;8.488;2023-08-30T05:07:44;99729.88;;;12.99;100.00
4392;BME280;2210;51.938;8.488;2023-08-30T05:11:44;99727.97;;;12.99;100.00
4392;BME280;2210;51.938;8.488;2023-08-30T05:15:44;99730.44;;;12.96;100.00
4392;BME280;2210;51.938;8.488;2023-08-30T05:19:48;99732.38;;;12.90;100.00
4392;BME280;2210;51.938;8.488;2023-08-30T05:23:48;99728.78;;;12.95;100.00
4392;BME280;2210;51.938;8.488;2023-08-30T05:27:48;99736.00;;;13.01;100.00
4392;BME280;2210;51.938;8.488;2023-08-30T05:31:55;99726.88;;;13.11;100.00
4392;BME280;2210;51.938;8.488;2023-08-30T05:35:55;99728.81;;;13.05;100.00
4392;BME280;2210;51.938;8.488;2023-08-30T05:39:57;99725.22;;;13.10;100.00
4392;BME280;2210;51.938;8.488;2023-08-30T05:43:58;99711.41;;;13.20;100.00
4392;BME280;2210;51.938;8.488;2023-08-30T05:47:58;99706.13;;;13.29;100.00
4392;BME280;2210;51.938;8.488;2023-08-30T05:51:58;99698.38;;;13.26;100.00
4392;BME280;2210;51.938;8.488;2023-08-30T05:55:58;99702.28;;;13.35;100.00
4392;BME280;2210;51.938;8.488;2023-08-30T06:00:02;99702.25;;;13.20;100.00
4392;BME280;2210;51.938;8.488;2023-08-30T06:04:04;99691.44;;;13.18;100.00
4392;BME280;2210;51.938;8.488;2023-08-30T06:08:05;99687.00;;;13.17;100.00
4392;BME280;2210;51.938;8.488;2023-08-30T06:12:06;99682.34;;;13.23;100.00
4392;BME280;2210;51.938;8.488;2023-08-30T06:16:06;99681.22;;;13.34;100.00
4392;BME280;2210;51.938;8.488;2023-08-30T06:20:12;99675.44;;;13.41;100.00
4392;BME280;2210;51.938;8.488;2023-08-30T06:24:13;99676.84;;;13.48;100.00
4392;BME280;2210;51.938;8.488;2023-08-30T06:28:13;99677.66;;;13.54;100.00
4392;BME280;2210;51.938;8.488;2023-08-30T06:32:16;99685.69;;;13.56;100.00
4392;BME280;2210;51.938;8.488;2023-08-30T06:36:20;99681.78;;;13.72;100.00
4392;BME280;2210;51.938;8.488;2023-08-30T06:40:25;99675.94;;;13.89;100.00
4392;BME280;2210;51.938;8.488;2023-08-30T06:44:26;99676.50;;;13.81;100.00
4392;BME280;2210;51.938;8.488;2023-08-30T06:48:26;99665.94;;;13.98;100.00
4392;BME280;2210;51.938;8.488;2023-08-30T06:52:27;99666.75;;;13.99;100.00
4392;BME280;2210;51.938;8.488;2023-08-30T06:56:30;99663.47;;;13.81;100.00
4392;BME280;2210;51.938;8.488;2023-08-30T07:00:30;99667.03;;;14.03;100.00
4392;BME280;2210;51.938;8.488;2023-08-30T07:04:31;99665.53;;;14.31;100.00
4392;BME280;2210;51.938;8.488;2023-08-30T07:08:31;99661.03;;;14.50;100.00
4392;BME280;2210;51.938;8.488;2023-08-30T07:12:32;99666.00;;;14.48;100.00
4392;BME280;2210;51.938;8.488;2023-08-30T07:16:32;99655.97;;;14.68;100.00
4392;BME280;2210;51.938;8.488;2023-08-30T07:20:33;99652.03;;;14.74;100.00
4392;BME280;2210;51.938;8.488;2023-08-30T07:28:39;99657.84;;;14.78;100.00
4392;BME280;2210;51.938;8.488;2023-08-30T07:32:52;99649.63;;;15.02;100.00
4392;BME280;2210;51.938;8.488;2023-08-30T07:36:53;99637.31;;;15.13;100.00
4392;BME280;2210;51.938;8.488;2023-08-30T07:40:55;99630.19;;;15.37;100.00
4392;BME280;2210;51.938;8.488;2023-08-30T07:44:55;99629.44;;;15.60;100.00
4392;BME280;2210;51.938;8.488;2023-08-30T07:48:55;99628.34;;;15.56;100.00
4392;BME280;2210;51.938;8.488;2023-08-30T07:52:58;99626.59;;;15.65;100.00
4392;BME280;2210;51.938;8.488;2023-08-30T07:57:27;99630.41;;;15.99;100.00
4392;BME280;2210;51.938;8.488;2023-08-30T08:01:33;99633.78;;;15.96;100.00
4392;BME280;2210;51.938;8.488;2023-08-30T08:05:35;99629.94;;;16.16;100.00
4392;BME280;2210;51.938;8.488;2023-08-30T08:09:38;99627.81;;;16.32;100.00
4392;BME280;2210;51.938;8.488;2023-08-30T08:13:39;99632.16;;;16.38;100.00
4392;BME280;2210;51.938;8.488;2023-08-30T08:17:48;99637.53;;;16.54;100.00
4392;BME280;2210;51.938;8.488;2023-08-30T08:21:52;99630.75;;;16.79;100.00
4392;BME280;2210;51.938;8.488;2023-08-30T08:25:58;99635.03;;;16.71;100.00
4392;BME280;2210;51.938;8.488;2023-08-30T08:29:59;99638.75;;;16.85;100.00
4392;BME280;2210;51.938;8.488;2023-08-30T08:34:27;99631.63;;;16.98;100.00
4392;BME280;2210;51.938;8.488;2023-08-30T08:38:27;99627.25;;;16.92;100.00
4392;BME280;2210;51.938;8.488;2023-08-30T08:42:31;99624.09;;;16.99;100.00
4392;BME280;2210;51.938;8.488;2023-08-30T08:46:32;99628.34;;;17.10;100.00
4392;BME280;2210;51.938;8.488;2023-08-30T08:50:36;99632.03;;;17.25;100.00
4392;BME280;2210;51.938;8.488;2023-08-30T08:54:40;99617.50;;;17.28;100.00
4392;BME280;2210;51.938;8.488;2023-08-30T08:58:40;99621.84;;;17.34;100.00
4392;BME280;2210;51.938;8.488;2023-08-30T09:02:42;99615.81;;;17.60;100.00
4392;BME280;2210;51.938;8.488;2023-08-30T09:06:46;99618.63;;;17.60;100.00
4392;BME280;2210;51.938;8.488;2023-08-30T09:10:47;99612.72;;;17.61;100.00
4392;BME280;2210;51.938;8.488;2023-08-30T09:14:54;99613.47;;;17.81;100.00
4392;BME280;2210;51.938;8.488;2023-08-30T09:19:05;99605.78;;;18.06;97.53
4392;BME280;2210;51.938;8.488;2023-08-30T09:23:16;99602.78;;;18.02;92.17
4392;BME280;2210;51.938;8.488;2023-08-30T09:27:18;99601.22;;;18.24;91.31
4392;BME280;2210;51.938;8.488;2023-08-30T09:31:18;99599.53;;;18.23;87.40
4392;BME280;2210;51.938;8.488;2023-08-30T09:35:22;99598.81;;;18.31;90.42
4392;BME280;2210;51.938;8.488;2023-08-30T09:39:25;99594.69;;;18.42;92.48
4392;BME280;2210;51.938;8.488;2023-08-30T09:43:27;99590.13;;;18.46;88.29
4392;BME280;2210;51.938;8.488;2023-08-30T09:47:29;99582.19;;;18.62;83.64
4392;BME280;2210;51.938;8.488;2023-08-30T09:51:46;99577.34;;;18.68;86.40
4392;BME280;2210;51.938;8.488;2023-08-30T09:55:53;99569.56;;;18.79;81.74
4392;BME280;2210;51.938;8.488;2023-08-30T09:59:58;99575.19;;;18.87;78.15
4392;BME280;2210;51.938;8.488;2023-08-30T10:04:02;99565.00;;;19.06;77.09
4392;BME280;2210;51.938;8.488;2023-08-30T10:08:04;99558.50;;;19.19;73.38
4392;BME280;2210;51.938;8.488;2023-08-30T10:12:20;99560.59;;;19.36;70.09
4392;BME280;2210;51.938;8.488;2023-08-30T10:16:24;99556.72;;;19.23;71.33
4392;BME280;2210;51.938;8.488;2023-08-30T10:20:26;99544.75;;;19.00;72.79
4392;BME280;2210;51.938;8.488;2023-08-30T10:25:06;99541.25;;;19.17;71.17
4392;BME280;2210;51.938;8.488;2023-08-30T10:29:12;99532.75;;;18.99;70.35
4392;BME280;2210;51.938;8.488;2023-08-30T10:33:27;99537.56;;;18.85;77.87
4392;BME280;2210;51.938;8.488;2023-08-30T10:37:33;99538.75;;;18.70;78.57
4392;BME280;2210;51.938;8.488;2023-08-30T10:41:35;99532.97;;;18.66;75.26
4392;BME280;2210;51.938;8.488;2023-08-30T10:45:35;99531.19;;;18.70;77.43
4392;BME280;2210;51.938;8.488;2023-08-30T10:49:42;99529.13;;;18.76;76.68
4392;BME280;2210;51.938;8.488;2023-08-30T10:53:42;99521.88;;;18.75;73.38
4392;BME280;2210;51.938;8.488;2023-08-30T10:57:46;99523.28;;;18.64;71.85
4392;BME280;2210;51.938;8.488;2023-08-30T11:02:01;99517.56;;;18.46;71.70
4392;BME280;2210;51.938;8.488;2023-08-30T11:06:06;99521.22;;;18.33;73.30
4392;BME280;2210;51.938;8.488;2023-08-30T11:10:07;99521.03;;;18.15;74.30
4392;BME280;2210;51.938;8.488;2023-08-30T11:14:18;99521.03;;;18.15;74.14
4392;BME280;2210;51.938;8.488;2023-08-30T11:18:19;99512.16;;;18.13;78.11
4392;BME280;2210;51.938;8.488;2023-08-30T11:22:23;99509.88;;;18.15;76.08
4392;BME280;2210;51.938;8.488;2023-08-30T11:26:23;99508.59;;;18.22;80.72
4392;BME280;2210;51.938;8.488;2023-08-30T11:30:24;99505.00;;;18.21;78.76
4392;BME280;2210;51.938;8.488;2023-08-30T11:34:31;99502.59;;;18.42;75.95
4392;BME280;2210;51.938;8.488;2023-08-30T11:38:34;99482.88;;;18.61;75.85
4392;BME280;2210;51.938;8.488;2023-08-30T11:42:34;99484.81;;;18.83;73.21
4392;BME280;2210;51.938;8.488;2023-08-30T11:46:34;99478.50;;;18.92;74.03
4392;BME280;2210;51.938;8.488;2023-08-30T11:50:35;99468.84;;;18.98;74.74
4392;BME280;2210;51.938;8.488;2023-08-30T11:54:35;99465.53;;;18.96;68.48
4392;BME280;2210;51.938;8.488;2023-08-30T11:58:38;99467.00;;;18.93;68.21
4392;BME280;2210;51.938;8.488;2023-08-30T12:02:46;99468.31;;;18.73;67.29
4392;BME280;2210;51.938;8.488;2023-08-30T12:06:53;99466.94;;;18.62;70.14
4392;BME280;2210;51.938;8.488;2023-08-30T12:10:54;99459.81;;;18.56;73.07
4392;BME280;2210;51.938;8.488;2023-08-30T12:14:56;99456.91;;;18.61;66.49
4392;BME280;2210;51.938;8.488;2023-08-30T12:19:15;99451.84;;;18.63;70.17
4392;BME280;2210;51.938;8.488;2023-08-30T12:23:40;99461.34;;;18.39;79.64
4392;BME280;2210;51.938;8.488;2023-08-30T12:27:44;99466.00;;;18.30;81.47
4392;BME280;2210;51.938;8.488;2023-08-30T12:31:47;99463.22;;;18.07;81.29
4392;BME280;2210;51.938;8.488;2023-08-30T12:35:47;99476.25;;;17.98;86.35
4392;BME280;2210;51.938;8.488;2023-08-30T12:39:51;99478.72;;;17.85;89.75
4392;BME280;2210;51.938;8.488;2023-08-30T12:43:51;99479.66;;;17.67;96.51
4392;BME280;2210;51.938;8.488;2023-08-30T12:47:51;99475.03;;;17.62;100.00
4392;BME280;2210;51.938;8.488;2023-08-30T12:51:54;99472.72;;;17.64;100.00
4392;BME280;2210;51.938;8.488;2023-08-30T12:55:58;99468.19;;;17.68;100.00
4392;BME280;2210;51.938;8.488;2023-08-30T12:59:58;99474.88;;;17.67;100.00
4392;BME280;2210;51.938;8.488;2023-08-30T13:04:11;99474.06;;;17.67;100.00
4392;BME280;2210;51.938;8.488;2023-08-30T13:08:11;99476.75;;;17.72;100.00
4392;BME280;2210;51.938;8.488;2023-08-30T13:12:11;99486.06;;;17.53;100.00
4392;BME280;2210;51.938;8.488;2023-08-30T13:16:11;99490.41;;;17.46;100.00
4392;BME280;2210;51.938;8.488;2023-08-30T13:20:20;99496.16;;;17.22;100.00
4392;BME280;2210;51.938;8.488;2023-08-30T13:24:21;99503.38;;;17.23;100.00
4392;BME280;2210;51.938;8.488;2023-08-30T13:28:21;99513.06;;;17.11;100.00
4392;BME280;2210;51.938;8.488;2023-08-30T13:32:30;99511.94;;;17.12;100.00
4392;BME280;2210;51.938;8.488;2023-08-30T13:36:33;99508.19;;;17.03;100.00
4392;BME280;2210;51.938;8.488;2023-08-30T13:40:38;99507.22;;;16.94;100.00
4392;BME280;2210;51.938;8.488;2023-08-30T13:44:38;99509.13;;;16.98;100.00
4392;BME280;2210;51.938;8.488;2023-08-30T13:48:39;99518.38;;;16.94;100.00
4392;BME280;2210;51.938;8.488;2023-08-30T13:52:45;99509.13;;;16.79;100.00
4392;BME280;2210;51.938;8.488;2023-08-30T13:56:46;99503.94;;;16.73;100.00
4392;BME280;2210;51.938;8.488;2023-08-30T14:00:52;99505.22;;;16.61;100.00
4392;BME280;2210;51.938;8.488;2023-08-30T14:04:52;99510.50;;;16.63;100.00
4392;BME280;2210;51.938;8.488;2023-08-30T14:08:56;99506.06;;;16.62;100.00
4392;BME280;2210;51.938;8.488;2023-08-30T14:12:56;99506.34;;;16.60;100.00
4392;BME280;2210;51.938;8.488;2023-08-30T14:16:57;99501.41;;;16.57;100.00
4392;BME280;2210;51.938;8.488;2023-08-30T14:21:03;99507.81;;;16.58;100.00
4392;BME280;2210;51.938;8.488;2023-08-30T14:25:04;99502.31;;;16.52;100.00
4392;BME280;2210;51.938;8.488;2023-08-30T14:29:10;99504.63;;;16.45;100.00
4392;BME280;2210;51.938;8.488;2023-08-30T14:33:11;99493.06;;;16.38;100.00
4392;BME280;2210;51.938;8.488;2023-08-30T14:37:14;99486.41;;;16.39;100.00
4392;BME280;2210;51.938;8.488;2023-08-30T14:41:17;99490.97;;;16.30;100.00
4392;BME280;2210;51.938;8.488;2023-08-30T14:45:23;99487.69;;;16.28;100.00
4392;BME280;2210;51.938;8.488;2023-08-30T14:49:24;99485.50;;;16.25;100.00
4392;BME280;2210;51.938;8.488;2023-08-30T14:53:24;99493.47;;;16.31;100.00
4392;BME280;2210;51.938;8.488;2023-08-30T14:57:28;99492.56;;;16.17;100.00
4392;BME280;2210;51.938;8.488;2023-08-30T15:01:28;99494.50;;;16.16;100.00
4392;BME280;2210;51.938;8.488;2023-08-30T15:05:34;99501.19;;;16.15;100.00
4392;BME280;2210;51.938;8.488;2023-08-30T15:09:34;99493.16;;;16.14;100.00
4392;BME280;2210;51.938;8.488;2023-08-30T15:13:35;99497.66;;;16.29;100.00
4392;BME280;2210;51.938;8.488;2023-08-30T15:17:38;99504.06;;;16.29;100.00
4392;BME280;2210;51.938;8.488;2023-08-30T15:21:39;99513.84;;;16.27;100.00
4392;BME280;2210;51.938;8.488;2023-08-30T15:25:44;99508.78;;;16.29;100.00
4392;BME280;2210;51.938;8.488;2023-08-30T15:29:45;99501.13;;;16.21;100.00
4392;BME280;2210;51.938;8.488;2023-08-30T15:33:45;99496.69;;;16.19;100.00
4392;BME280;2210;51.938;8.488;2023-08-30T15:37:46;99501.66;;;16.23;100.00
4392;BME280;2210;51.938;8.488;2023-08-30T15:41:46;99493.47;;;16.12;100.00
4392;BME280;2210;51.938;8.488;2023-08-30T15:45:51;99489.38;;;16.05;100.00
4392;BME280;2210;51.938;8.488;2023-08-30T15:49:54;99489.63;;;16.08;100.00
4392;BME280;2210;51.938;8.488;2023-08-30T15:53:54;99489.63;;;16.08;100.00
4392;BME280;2210;51.938;8.488;2023-08-30T15:57:58;99486.09;;;16.02;100.00
4392;BME280;2210;51.938;8.488;2023-08-30T16:01:58;99485.28;;;16.02;100.00
4392;BME280;2210;51.938;8.488;2023-08-30T16:05:58;99483.00;;;16.04;100.00
4392;BME280;2210;51.938;8.488;2023-08-30T16:09:58;99486.03;;;16.08;100.00
4392;BME280;2210;51.938;8.488;2023-08-30T16:14:05;99491.88;;;16.06;100.00
4392;BME280;2210;51.938;8.488;2023-08-30T16:18:05;99494.19;;;15.99;100.00
4392;BME280;2210;51.938;8.488;2023-08-30T16:22:05;99505.97;;;15.91;100.00
4392;BME280;2210;51.938;8.488;2023-08-30T16:26:09;99505.56;;;16.02;100.00
4392;BME280;2210;51.938;8.488;2023-08-30T16:30:09;99504.63;;;15.88;100.00
4392;BME280;2210;51.938;8.488;2023-08-30T16:34:10;99514.97;;;15.82;100.00
4392;BME280;2210;51.938;8.488;2023-08-30T16:38:10;99524.44;;;15.81;100.00
4392;BME280;2210;51.938;8.488;2023-08-30T16:42:13;99514.16;;;15.82;100.00
4392;BME280;2210;51.938;8.488;2023-08-30T16:46:19;99529.09;;;15.62;100.00
4392;BME280;2210;51.938;8.488;2023-08-30T16:50:20;99535.72;;;15.66;100.00
4392;BME280;2210;51.938;8.488;2023-08-30T16:54:26;99524.06;;;15.64;100.00
4392;BME280;2210;51.938;8.488;2023-08-30T16:58:32;99516.03;;;15.62;100.00
4392;BME280;2210;51.938;8.488;2023-08-30T17:02:33;99521.88;;;15.61;100.00
4392;BME280;2210;51.938;8.488;2023-08-30T17:06:42;99520.97;;;15.46;100.00
4392;BME280;2210;51.938;8.488;2023-08-30T17:11:02;99528.84;;;15.34;100.00
4392;BME280;2210;51.938;8.488;2023-08-30T17:15:04;99536.75;;;15.22;100.00
4392;BME280;2210;51.938;8.488;2023-08-30T17:19:07;99539.03;;;15.14;100.00
4392;BME280;2210;51.938;8.488;2023-08-30T17:23:10;99533.91;;;14.97;100.00
4392;BME280;2210;51.938;8.488;2023-08-30T17:27:11;99534.09;;;15.11;100.00
4392;BME280;2210;51.938;8.488;2023-08-30T17:31:11;99540.47;;;15.12;100.00
4392;BME280;2210;51.938;8.488;2023-08-30T17:35:12;99530.75;;;15.09;100.00
4392;BME280;2210;51.938;8.488;2023-08-30T17:39:12;99523.50;;;15.13;100.00
4392;BME280;2210;51.938;8.488;2023-08-30T17:43:13;99512.06;;;14.91;100.00
4392;BME280;2210;51.938;8.488;2023-08-30T17:47:17;99500.91;;;14.96;100.00
4392;BME280;2210;51.938;8.488;2023-08-30T17:51:26;99507.09;;;14.88;100.00
4392;BME280;2210;51.938;8.488;2023-08-30T17:55:26;99490.78;;;14.81;100.00
4392;BME280;2210;51.938;8.488;2023-08-30T17:59:26;99479.44;;;14.77;100.00
4392;BME280;2210;51.938;8.488;2023-08-30T18:03:30;99488.28;;;14.79;100.00
4392;BME280;2210;51.938;8.488;2023-08-30T18:07:30;99494.31;;;14.87;100.00
4392;BME280;2210;51.938;8.488;2023-08-30T18:11:37;99500.03;;;15.00;100.00
4392;BME280;2210;51.938;8.488;2023-08-30T18:15:40;99494.97;;;15.08;100.00
4392;BME280;2210;51.938;8.488;2023-08-30T18:19:52;99501.97;;;15.00;100.00
4392;BME280;2210;51.938;8.488;2023-08-30T18:24:16;99501.41;;;15.03;100.00
4392;BME280;2210;51.938;8.488;2023-08-30T18:28:26;99502.53;;;15.02;100.00
4392;BME280;2210;51.938;8.488;2023-08-30T18:32:26;99518.59;;;15.05;100.00
4392;BME280;2210;51.938;8.488;2023-08-30T18:36:42;99527.81;;;15.00;100.00
4392;BME280;2210;51.938;8.488;2023-08-30T18:40:43;99527.63;;;14.87;100.00
4392;BME280;2210;51.938;8.488;2023-08-30T18:44:52;99535.91;;;14.92;100.00
4392;BME280;2210;51.938;8.488;2023-08-30T18:48:56;99536.78;;;14.87;100.00
4392;BME280;2210;51.938;8.488;2023-08-30T18:52:56;99548.19;;;14.86;100.00
4392;BME280;2210;51.938;8.488;2023-08-30T18:56:59;99548.69;;;14.93;100.00
4392;BME280;2210;51.938;8.488;2023-08-30T19:01:24;99555.44;;;14.81;100.00
4392;BME280;2210;51.938;8.488;2023-08-30T19:05:36;99565.38;;;14.88;100.00
4392;BME280;2210;51.938;8.488;2023-08-30T19:10:00;99571.22;;;14.86;100.00
4392;BME280;2210;51.938;8.488;2023-08-30T19:14:34;99572.53;;;14.94;100.00
4392;BME280;2210;51.938;8.488;2023-08-30T19:18:50;99565.63;;;14.91;100.00
4392;BME280;2210;51.938;8.488;2023-08-30T19:22:56;99574.22;;;14.95;100.00
4392;BME280;2210;51.938;8.488;2023-08-30T19:26:57;99574.75;;;14.92;100.00
4392;BME280;2210;51.938;8.488;2023-08-30T19:30:57;99589.78;;;14.91;100.00
4392;BME280;2210;51.938;8.488;2023-08-30T19:34:57;99585.41;;;14.79;100.00
4392;BME280;2210;51.938;8.488;2023-08-30T19:39:07;99589.28;;;14.78;100.00
4392;BME280;2210;51.938;8.488;2023-08-30T19:43:18;99591.75;;;14.85;100.00
4392;BME280;2210;51.938;8.488;2023-08-30T19:47:27;99588.69;;;14.87;100.00
4392;BME280;2210;51.938;8.488;2023-08-30T19:51:34;99588.75;;;14.81;100.00
4392;BME280;2210;51.938;8.488;2023-08-30T19:55:40;99591.06;;;14.69;100.00
4392;BME280;2210;51.938;8.488;2023-08-30T19:59:41;99595.50;;;14.65;100.00
4392;BME280;2210;51.938;8.488;2023-08-30T20:03:41;99587.72;;;14.62;100.00
4392;BME280;2210;51.938;8.488;2023-08-30T20:07:41;99593.56;;;14.60;100.00
4392;BME280;2210;51.938;8.488;2023-08-30T20:11:47;99592.22;;;14.53;100.00
4392;BME280;2210;51.938;8.488;2023-08-30T20:15:56;99596.44;;;14.45;100.00
4392;BME280;2210;51.938;8.488;2023-08-30T20:19:59;99592.28;;;14.42;100.00
4392;BME280;2210;51.938;8.488;2023-08-30T20:24:06;99597.84;;;14.37;100.00
4392;BME280;2210;51.938;8.488;2023-08-30T20:28:09;99599.53;;;14.33;100.00
4392;BME280;2210;51.938;8.488;2023-08-30T20:32:10;99604.22;;;14.38;100.00
4392;BME280;2210;51.938;8.488;2023-08-30T20:36:10;99611.75;;;14.32;100.00
4392;BME280;2210;51.938;8.488;2023-08-30T20:40:15;99621.16;;;14.31;100.00
4392;BME280;2210;51.938;8.488;2023-08-30T20:44:15;99625.13;;;14.20;100.00
4392;BME280;2210;51.938;8.488;2023-08-30T20:48:18;99630.97;;;14.13;100.00
4392;BME280;2210;51.938;8.488;2023-08-30T20:52:25;99641.81;;;14.04;100.00
4392;BME280;2210;51.938;8.488;2023-08-30T20:56:27;99653.41;;;14.11;100.00
4392;BME280;2210;51.938;8.488;2023-08-30T21:00:28;99647.88;;;14.16;100.00
4392;BME280;2210;51.938;8.488;2023-08-30T21:04:28;99641.47;;;14.16;100.00
4392;BME280;2210;51.938;8.488;2023-08-30T21:08:28;99635.09;;;14.15;100.00
4392;BME280;2210;51.938;8.488;2023-08-30T21:12:29;99645.69;;;14.08;100.00
4392;BME280;2210;51.938;8.488;2023-08-30T21:16:29;99646.56;;;13.98;100.00
4392;BME280;2210;51.938;8.488;2023-08-30T21:20:39;99652.09;;;13.88;100.00
4392;BME280;2210;51.938;8.488;2023-08-30T21:24:39;99646.84;;;13.81;100.00
4392;BME280;2210;51.938;8.488;2023-08-30T21:28:43;99662.38;;;13.77;100.00
4392;BME280;2210;51.938;8.488;2023-08-30T21:32:43;99664.06;;;13.78;100.00
4392;BME280;2210;51.938;8.488;2023-08-30T21:36:49;99648.81;;;13.76;100.00
4392;BME280;2210;51.938;8.488;2023-08-30T21:40:56;99656.56;;;13.84;100.00
4392;BME280;2210;51.938;8.488;2023-08-30T21:44:56;99662.38;;;13.77;100.00
4392;BME280;2210;51.938;8.488;2023-08-30T21:48:57;99660.16;;;13.79;100.00
4392;BME280;2210;51.938;8.488;2023-08-30T21:52:57;99669.84;;;13.82;100.00
4392;BME280;2210;51.938;8.488;2023-08-30T21:57:03;99674.28;;;13.88;100.00
4392;BME280;2210;51.938;8.488;2023-08-30T22:01:06;99665.09;;;13.93;100.00
4392;BME280;2210;51.938;8.488;2023-08-30T22:05:25;99668.16;;;14.02;100.00